sensor_id;sensor_type;location;lat;lon;timestamp;P1;P2;P0
73146;PMS7003;61345;48.922;2.244;2023-04-07T00:00:54;1.25;0.75;0.25
73146;PMS7003;61345;48.922;2.244;2023-04-07T00:03:20;0.00;0.00;0.00
73146;PMS7003;61345;48.922;2.244;2023-04-07T00:05:45;3.50;1.75;1.00
73146;PMS7003;61345;48.922;2.244;2023-04-07T00:08:10;1.00;1.00;1.00
73146;PMS7003;61345;48.922;2.244;2023-04-07T00:10:36;0.33;0.33;0.33
73146;PMS7003;61345;48.922;2.244;2023-04-07T00:13:01;4.33;1.00;1.00
73146;PMS7003;61345;48.922;2.244;2023-04-07T00:15:26;0.00;0.00;0.00
73146;PMS7003;61345;48.922;2.244;2023-04-07T00:17:51;2.00;1.00;1.00
73146;PMS7003;61345;48.922;2.244;2023-04-07T00:20:17;2.00;0.00;0.00
73146;PMS7003;61345;48.922;2.244;2023-04-07T00:22:42;1.00;0.33;0.00
73146;PMS7003;61345;48.922;2.244;2023-04-07T00:25:07;4.33;1.00;0.33
73146;PMS7003;61345;48.922;2.244;2023-04-07T00:27:32;2.00;1.00;0.50
73146;PMS7003;61345;48.922;2.244;2023-04-07T00:29:57;1.00;1.00;1.00
73146;PMS7003;61345;48.922;2.244;2023-04-07T00:32:23;1.00;1.00;1.00
73146;PMS7003;61345;48.922;2.244;2023-04-07T00:34:48;2.67;1.00;1.00
73146;PMS7003;61345;48.922;2.244;2023-04-07T00:37:13;2.00;0.33;0.00
73146;PMS7003;61345;48.922;2.244;2023-04-07T00:39:38;2.00;1.00;1.00
73146;PMS7003;61345;48.922;2.244;2023-04-07T00:42:03;0.00;0.00;0.00
73146;PMS7003;61345;48.922;2.244;2023-04-07T00:44:30;5.50;1.00;0.75
73146;PMS7003;61345;48.922;2.244;2023-04-07T00:46:56;1.67;1.00;0.00
73146;PMS7003;61345;48.922;2.244;2023-04-07T00:49:21;3.50;1.00;1.00
73146;PMS7003;61345;48.922;2.244;2023-04-07T00:51:46;5.00;1.67;1.00
73146;PMS7003;61345;48.922;2.244;2023-04-07T00:54:12;0.00;0.00;0.00
73146;PMS7003;61345;48.922;2.244;2023-04-07T00:56:37;0.25;0.25;0.00
73146;PMS7003;61345;48.922;2.244;2023-04-07T00:59:05;2.00;1.00;1.00
73146;PMS7003;61345;48.922;2.244;2023-04-07T01:02:17;0.75;0.75;0.00
73146;PMS7003;61345;48.922;2.244;2023-04-07T01:04:26;2.75;1.00;1.00
73146;PMS7003;61345;48.922;2.244;2023-04-07T01:06:52;3.00;1.75;1.00
73146;PMS7003;61345;48.922;2.244;2023-04-07T01:09:24;0.75;0.75;0.00
73146;PMS7003;61345;48.922;2.244;2023-04-07T01:12:02;0.25;0.25;0.25
73146;PMS7003;61345;48.922;2.244;2023-04-07T01:14:31;1.75;1.00;0.75
73146;PMS7003;61345;48.922;2.244;2023-04-07T01:16:57;1.75;1.75;1.00
73146;PMS7003;61345;48.922;2.244;2023-04-07T01:21:54;2.00;1.00;0.75
73146;PMS7003;61345;48.922;2.244;2023-04-07T01:25:02;2.75;1.00;1.00
73146;PMS7003;61345;48.922;2.244;2023-04-07T01:27:24;5.00;0.00;0.00
73146;PMS7003;61345;48.922;2.244;2023-04-07T01:29:54;3.00;1.00;1.00
73146;PMS7003;61345;48.922;2.244;2023-04-07T01:32:20;6.00;1.00;1.00
73146;PMS7003;61345;48.922;2.244;2023-04-07T01:34:48;2.00;1.00;0.75
73146;PMS7003;61345;48.922;2.244;2023-04-07T01:37:16;0.50;0.00;0.00
73146;PMS7003;61345;48.922;2.244;2023-04-07T01:39:41;0.25;0.25;0.00
73146;PMS7003;61345;48.922;2.244;2023-04-07T01:42:07;1.00;1.00;1.00
73146;PMS7003;61345;48.922;2.244;2023-04-07T01:44:33;0.75;0.75;0.50
73146;PMS7003;61345;48.922;2.244;2023-04-07T01:46:58;1.00;1.00;1.00
73146;PMS7003;61345;48.922;2.244;2023-04-07T01:49:24;1.00;1.00;1.00
73146;PMS7003;61345;48.922;2.244;2023-04-07T01:51:50;3.00;0.75;0.00
73146;PMS7003;61345;48.922;2.244;2023-04-07T01:54:15;2.00;1.00;1.00
73146;PMS7003;61345;48.922;2.244;2023-04-07T01:56:42;0.75;0.00;0.00
73146;PMS7003;61345;48.922;2.244;2023-04-07T01:59:07;5.75;1.25;1.00
73146;PMS7003;61345;48.922;2.244;2023-04-07T02:01:32;0.67;0.67;0.00
73146;PMS7003;61345;48.922;2.244;2023-04-07T02:04:11;5.00;1.00;1.00
73146;PMS7003;61345;48.922;2.244;2023-04-07T02:06:51;3.00;2.00;1.00
73146;PMS7003;61345;48.922;2.244;2023-04-07T02:09:17;1.50;0.50;0.00
73146;PMS7003;61345;48.922;2.244;2023-04-07T02:11:44;0.00;0.00;0.00
73146;PMS7003;61345;48.922;2.244;2023-04-07T02:14:10;0.75;0.25;0.00
73146;PMS7003;61345;48.922;2.244;2023-04-07T02:16:35;3.00;1.00;0.00
73146;PMS7003;61345;48.922;2.244;2023-04-07T02:19:01;3.00;0.75;0.75
73146;PMS7003;61345;48.922;2.244;2023-04-07T02:21:27;1.00;1.00;1.00
73146;PMS7003;61345;48.922;2.244;2023-04-07T02:23:54;1.00;1.00;1.00
73146;PMS7003;61345;48.922;2.244;2023-04-07T02:26:19;2.75;0.25;0.00
73146;PMS7003;61345;48.922;2.244;2023-04-07T02:28:45;2.75;1.00;1.00
73146;PMS7003;61345;48.922;2.244;2023-04-07T02:31:10;2.00;2.00;1.00
73146;PMS7003;61345;48.922;2.244;2023-04-07T02:33:37;1.25;1.25;1.00
73146;PMS7003;61345;48.922;2.244;2023-04-07T02:36:02;2.00;1.00;1.00
73146;PMS7003;61345;48.922;2.244;2023-04-07T02:38:27;3.00;1.00;1.00
73146;PMS7003;61345;48.922;2.244;2023-04-07T02:40:53;2.33;0.00;0.00
73146;PMS7003;61345;48.922;2.244;2023-04-07T02:43:20;4.50;1.00;1.00
73146;PMS7003;61345;48.922;2.244;2023-04-07T02:45:45;4.25;1.00;0.50
73146;PMS7003;61345;48.922;2.244;2023-04-07T02:48:10;2.00;0.33;0.33
73146;PMS7003;61345;48.922;2.244;2023-04-07T02:50:35;3.00;1.00;0.67
73146;PMS7003;61345;48.922;2.244;2023-04-07T02:53:01;4.00;1.00;1.00
73146;PMS7003;61345;48.922;2.244;2023-04-07T02:55:26;2.33;1.67;1.00
73146;PMS7003;61345;48.922;2.244;2023-04-07T02:57:51;5.00;1.00;1.00
73146;PMS7003;61345;48.922;2.244;2023-04-07T03:00:16;2.00;2.00;1.67
73146;PMS7003;61345;48.922;2.244;2023-04-07T03:02:41;2.67;1.67;1.00
73146;PMS7003;61345;48.922;2.244;2023-04-07T03:05:06;5.00;1.00;1.00
73146;PMS7003;61345;48.922;2.244;2023-04-07T03:07:32;1.50;1.50;1.00
73146;PMS7003;61345;48.922;2.244;2023-04-07T03:09:57;2.00;2.00;1.00
73146;PMS7003;61345;48.922;2.244;2023-04-07T03:12:22;6.00;1.33;1.00
73146;PMS7003;61345;48.922;2.244;2023-04-07T03:14:47;2.00;2.00;2.00
73146;PMS7003;61345;48.922;2.244;2023-04-07T03:17:13;3.00;2.25;1.00
73146;PMS7003;61345;48.922;2.244;2023-04-07T03:19:38;1.00;1.00;0.00
73146;PMS7003;61345;48.922;2.244;2023-04-07T03:22:03;0.67;0.00;0.00
73146;PMS7003;61345;48.922;2.244;2023-04-07T03:24:28;5.00;2.00;1.33
73146;PMS7003;61345;48.922;2.244;2023-04-07T03:26:53;3.00;1.33;1.00
73146;PMS7003;61345;48.922;2.244;2023-04-07T03:29:20;4.50;1.00;1.00
73146;PMS7003;61345;48.922;2.244;2023-04-07T03:31:45;3.00;1.00;1.00
73146;PMS7003;61345;48.922;2.244;2023-04-07T03:34:10;6.50;2.00;1.75
73146;PMS7003;61345;48.922;2.244;2023-04-07T03:36:35;1.00;1.00;1.00
73146;PMS7003;61345;48.922;2.244;2023-04-07T03:39:00;8.00;2.00;1.00
73146;PMS7003;61345;48.922;2.244;2023-04-07T03:41:26;4.33;3.00;2.00
73146;PMS7003;61345;48.922;2.244;2023-04-07T03:43:51;4.00;1.67;1.00
73146;PMS7003;61345;48.922;2.244;2023-04-07T03:46:17;5.00;2.00;2.00
73146;PMS7003;61345;48.922;2.244;2023-04-07T03:48:43;6.25;2.75;2.00
73146;PMS7003;61345;48.922;2.244;2023-04-07T03:51:08;1.33;1.33;1.00
73146;PMS7003;61345;48.922;2.244;2023-04-07T03:53:33;2.00;1.00;1.00
73146;PMS7003;61345;48.922;2.244;2023-04-07T03:55:58;2.00;2.00;1.00
73146;PMS7003;61345;48.922;2.244;2023-04-07T03:58:23;1.00;0.00;0.00
73146;PMS7003;61345;48.922;2.244;2023-04-07T04:00:49;2.00;2.00;1.25
73146;PMS7003;61345;48.922;2.244;2023-04-07T04:03:14;1.67;1.00;1.00
73146;PMS7003;61345;48.922;2.244;2023-04-07T04:05:39;2.75;1.00;0.50
73146;PMS7003;61345;48.922;2.244;2023-04-07T04:08:05;1.67;1.00;0.00
73146;PMS7003;61345;48.922;2.244;2023-04-07T04:10:30;2.00;1.00;1.00
73146;PMS7003;61345;48.922;2.244;2023-04-07T04:12:55;6.00;2.00;1.00
73146;PMS7003;61345;48.922;2.244;2023-04-07T04:15:24;2.50;1.00;0.75
73146;PMS7003;61345;48.922;2.244;2023-04-07T04:17:49;2.00;2.00;1.00
73146;PMS7003;61345;48.922;2.244;2023-04-07T04:20:14;4.33;3.00;1.67
73146;PMS7003;61345;48.922;2.244;2023-04-07T04:22:40;1.00;1.00;1.00
73146;PMS7003;61345;48.922;2.244;2023-04-07T04:25:05;5.00;1.75;1.00
73146;PMS7003;61345;48.922;2.244;2023-04-07T04:27:30;6.00;2.00;1.33
73146;PMS7003;61345;48.922;2.244;2023-04-07T04:29:55;4.00;2.00;1.00
73146;PMS7003;61345;48.922;2.244;2023-04-07T04:32:21;2.33;2.33;2.00
73146;PMS7003;61345;48.922;2.244;2023-04-07T04:34:46;6.33;3.00;2.00
73146;PMS7003;61345;48.922;2.244;2023-04-07T04:37:11;5.33;2.67;1.00
73146;PMS7003;61345;48.922;2.244;2023-04-07T04:39:36;3.50;2.00;1.25
73146;PMS7003;61345;48.922;2.244;2023-04-07T04:42:01;3.00;2.33;1.33
73146;PMS7003;61345;48.922;2.244;2023-04-07T04:44:27;3.50;2.00;1.50
73146;PMS7003;61345;48.922;2.244;2023-04-07T04:46:54;7.00;2.50;2.00
73146;PMS7003;61345;48.922;2.244;2023-04-07T04:49:19;2.00;1.33;1.00
73146;PMS7003;61345;48.922;2.244;2023-04-07T04:51:44;4.33;1.00;1.00
73146;PMS7003;61345;48.922;2.244;2023-04-07T04:54:10;6.25;2.75;1.75
73146;PMS7003;61345;48.922;2.244;2023-04-07T04:56:35;3.25;2.00;1.25
73146;PMS7003;61345;48.922;2.244;2023-04-07T04:59:01;2.00;2.00;1.67
73146;PMS7003;61345;48.922;2.244;2023-04-07T05:01:26;2.25;1.25;1.25
73146;PMS7003;61345;48.922;2.244;2023-04-07T05:03:51;4.33;2.00;2.00
73146;PMS7003;61345;48.922;2.244;2023-04-07T05:06:16;10.67;3.33;2.67
73146;PMS7003;61345;48.922;2.244;2023-04-07T05:08:42;2.00;2.00;1.67
73146;PMS7003;61345;48.922;2.244;2023-04-07T05:11:07;3.00;2.33;2.00
73146;PMS7003;61345;48.922;2.244;2023-04-07T05:13:32;4.25;2.00;2.00
73146;PMS7003;61345;48.922;2.244;2023-04-07T05:15:58;6.00;5.00;2.00
73146;PMS7003;61345;48.922;2.244;2023-04-07T05:18:23;3.67;1.33;1.00
73146;PMS7003;61345;48.922;2.244;2023-04-07T05:20:48;6.00;2.00;2.00
73146;PMS7003;61345;48.922;2.244;2023-04-07T05:23:14;4.00;2.75;2.00
73146;PMS7003;61345;48.922;2.244;2023-04-07T05:25:39;6.75;5.00;3.00
73146;PMS7003;61345;48.922;2.244;2023-04-07T05:28:04;6.33;3.00;2.67
73146;PMS7003;61345;48.922;2.244;2023-04-07T05:30:30;7.75;2.50;2.25
73146;PMS7003;61345;48.922;2.244;2023-04-07T05:32:55;6.00;3.33;2.00
73146;PMS7003;61345;48.922;2.244;2023-04-07T05:35:20;6.00;3.67;2.67
73146;PMS7003;61345;48.922;2.244;2023-04-07T05:37:45;2.67;2.00;1.67
73146;PMS7003;61345;48.922;2.244;2023-04-07T05:40:11;2.00;2.00;1.00
73146;PMS7003;61345;48.922;2.244;2023-04-07T05:42:36;5.50;2.75;2.00
73146;PMS7003;61345;48.922;2.244;2023-04-07T05:45:02;3.33;2.67;2.00
73146;PMS7003;61345;48.922;2.244;2023-04-07T05:47:27;5.50;2.50;1.25
73146;PMS7003;61345;48.922;2.244;2023-04-07T05:49:52;4.00;4.00;2.00
73146;PMS7003;61345;48.922;2.244;2023-04-07T05:52:17;4.33;4.33;2.00
73146;PMS7003;61345;48.922;2.244;2023-04-07T05:54:42;5.33;2.67;1.33
73146;PMS7003;61345;48.922;2.244;2023-04-07T05:57:08;5.75;2.25;1.00
73146;PMS7003;61345;48.922;2.244;2023-04-07T05:59:33;6.00;2.00;1.00
73146;PMS7003;61345;48.922;2.244;2023-04-07T06:01:59;5.25;4.00;2.75
73146;PMS7003;61345;48.922;2.244;2023-04-07T06:04:24;2.25;2.25;2.00
73146;PMS7003;61345;48.922;2.244;2023-04-07T06:06:49;6.00;3.75;2.00
73146;PMS7003;61345;48.922;2.244;2023-04-07T06:09:16;5.50;3.50;3.25
73146;PMS7003;61345;48.922;2.244;2023-04-07T06:11:41;5.00;4.00;2.00
73146;PMS7003;61345;48.922;2.244;2023-04-07T06:14:06;5.00;5.00;3.33
73146;PMS7003;61345;48.922;2.244;2023-04-07T06:16:31;9.33;2.00;2.00
73146;PMS7003;61345;48.922;2.244;2023-04-07T06:18:57;7.33;3.33;3.33
73146;PMS7003;61345;48.922;2.244;2023-04-07T06:21:22;5.33;3.33;2.00
73146;PMS7003;61345;48.922;2.244;2023-04-07T06:23:48;11.25;5.00;3.25
73146;PMS7003;61345;48.922;2.244;2023-04-07T06:26:13;5.33;5.00;2.67
73146;PMS7003;61345;48.922;2.244;2023-04-07T06:28:38;5.33;4.67;3.33
73146;PMS7003;61345;48.922;2.244;2023-04-07T06:31:03;6.75;3.50;2.00
73146;PMS7003;61345;48.922;2.244;2023-04-07T06:33:29;9.00;3.75;2.75
73146;PMS7003;61345;48.922;2.244;2023-04-07T06:35:55;6.75;5.00;3.25
73146;PMS7003;61345;48.922;2.244;2023-04-07T06:38:20;8.50;5.00;3.00
73146;PMS7003;61345;48.922;2.244;2023-04-07T06:40:45;7.00;4.00;3.33
73146;PMS7003;61345;48.922;2.244;2023-04-07T06:43:10;7.33;5.00;3.33
73146;PMS7003;61345;48.922;2.244;2023-04-07T06:45:36;7.33;5.00;3.33
73146;PMS7003;61345;48.922;2.244;2023-04-07T06:48:01;9.33;5.00;3.33
73146;PMS7003;61345;48.922;2.244;2023-04-07T06:50:26;9.33;5.00;3.33
73146;PMS7003;61345;48.922;2.244;2023-04-07T06:52:51;9.00;7.00;5.67
73146;PMS7003;61345;48.922;2.244;2023-04-07T06:55:16;2.00;2.00;1.00
73146;PMS7003;61345;48.922;2.244;2023-04-07T06:57:41;9.33;6.00;3.67
73146;PMS7003;61345;48.922;2.244;2023-04-07T07:00:07;9.33;5.00;3.33
73146;PMS7003;61345;48.922;2.244;2023-04-07T07:02:33;9.00;5.00;3.25
73146;PMS7003;61345;48.922;2.244;2023-04-07T07:04:58;10.67;6.00;3.33
73146;PMS7003;61345;48.922;2.244;2023-04-07T07:07:23;6.00;5.00;3.25
73146;PMS7003;61345;48.922;2.244;2023-04-07T07:09:49;11.00;5.50;5.00
73146;PMS7003;61345;48.922;2.244;2023-04-07T07:12:15;13.25;6.50;3.25
73146;PMS7003;61345;48.922;2.244;2023-04-07T07:14:41;10.00;6.00;5.00
73146;PMS7003;61345;48.922;2.244;2023-04-07T07:17:07;8.67;6.00;4.67
73146;PMS7003;61345;48.922;2.244;2023-04-07T07:19:32;13.00;10.00;6.33
73146;PMS7003;61345;48.922;2.244;2023-04-07T07:21:57;6.00;4.33;3.00
73146;PMS7003;61345;48.922;2.244;2023-04-07T07:24:22;10.00;6.00;3.00
73146;PMS7003;61345;48.922;2.244;2023-04-07T07:26:47;9.33;8.33;5.00
73146;PMS7003;61345;48.922;2.244;2023-04-07T07:29:12;9.33;5.33;5.00
73146;PMS7003;61345;48.922;2.244;2023-04-07T07:31:38;6.00;6.00;5.00
73146;PMS7003;61345;48.922;2.244;2023-04-07T07:34:03;6.33;6.00;5.00
73146;PMS7003;61345;48.922;2.244;2023-04-07T07:36:28;9.00;7.67;5.00
73146;PMS7003;61345;48.922;2.244;2023-04-07T07:38:53;6.33;5.00;3.00
73146;PMS7003;61345;48.922;2.244;2023-04-07T07:41:18;7.00;5.00;5.00
73146;PMS7003;61345;48.922;2.244;2023-04-07T07:43:43;6.33;6.00;3.00
73146;PMS7003;61345;48.922;2.244;2023-04-07T07:46:09;6.50;6.00;5.00
73146;PMS7003;61345;48.922;2.244;2023-04-07T07:48:34;9.67;6.33;5.00
73146;PMS7003;61345;48.922;2.244;2023-04-07T07:50:59;5.67;5.67;3.67
73146;PMS7003;61345;48.922;2.244;2023-04-07T07:53:24;13.00;5.75;5.00
73146;PMS7003;61345;48.922;2.244;2023-04-07T07:55:50;9.33;6.00;3.67
73146;PMS7003;61345;48.922;2.244;2023-04-07T07:58:15;11.33;7.00;5.67
73146;PMS7003;61345;48.922;2.244;2023-04-07T08:00:40;8.33;6.67;4.33
73146;PMS7003;61345;48.922;2.244;2023-04-07T08:03:05;9.67;5.67;5.00
73146;PMS7003;61345;48.922;2.244;2023-04-07T08:05:31;16.00;9.75;5.50
73146;PMS7003;61345;48.922;2.244;2023-04-07T08:07:56;8.33;6.67;5.00
73146;PMS7003;61345;48.922;2.244;2023-04-07T08:10:21;9.00;6.25;5.00
73146;PMS7003;61345;48.922;2.244;2023-04-07T08:12:49;11.25;7.50;6.00
73146;PMS7003;61345;48.922;2.244;2023-04-07T08:15:14;11.00;6.33;5.00
73146;PMS7003;61345;48.922;2.244;2023-04-07T08:17:39;5.50;5.50;3.50
73146;PMS7003;61345;48.922;2.244;2023-04-07T08:20:04;8.00;6.67;5.00
73146;PMS7003;61345;48.922;2.244;2023-04-07T08:22:30;8.25;6.25;5.00
73146;PMS7003;61345;48.922;2.244;2023-04-07T08:24:55;8.00;6.33;5.00
73146;PMS7003;61345;48.922;2.244;2023-04-07T08:27:21;10.67;7.00;5.67
73146;PMS7003;61345;48.922;2.244;2023-04-07T08:29:57;14.67;5.00;3.00
73146;PMS7003;61345;48.922;2.244;2023-04-07T08:32:22;13.75;9.50;7.00
73146;PMS7003;61345;48.922;2.244;2023-04-07T08:34:47;10.67;7.67;6.00
73146;PMS7003;61345;48.922;2.244;2023-04-07T08:37:13;14.00;9.67;6.00
73146;PMS7003;61345;48.922;2.244;2023-04-07T08:39:38;11.00;7.00;6.00
73146;PMS7003;61345;48.922;2.244;2023-04-07T08:42:03;13.33;6.00;5.00
73146;PMS7003;61345;48.922;2.244;2023-04-07T08:44:28;10.50;7.00;5.00
73146;PMS7003;61345;48.922;2.244;2023-04-07T08:46:55;7.50;7.00;5.50
73146;PMS7003;61345;48.922;2.244;2023-04-07T08:49:21;10.75;7.25;5.00
73146;PMS7003;61345;48.922;2.244;2023-04-07T08:51:47;2.25;1.25;1.00
73146;PMS7003;61345;48.922;2.244;2023-04-07T08:54:15;9.50;5.00;4.50
73146;PMS7003;61345;48.922;2.244;2023-04-07T08:56:42;8.75;7.25;4.50
73146;PMS7003;61345;48.922;2.244;2023-04-07T08:59:10;7.50;6.50;5.75
73146;PMS7003;61345;48.922;2.244;2023-04-07T09:01:35;8.50;7.00;5.00
73146;PMS7003;61345;48.922;2.244;2023-04-07T09:04:01;6.00;6.00;5.00
73146;PMS7003;61345;48.922;2.244;2023-04-07T09:06:26;10.00;6.50;4.25
73146;PMS7003;61345;48.922;2.244;2023-04-07T09:08:53;14.75;11.00;7.00
73146;PMS7003;61345;48.922;2.244;2023-04-07T09:11:18;12.00;7.33;5.33
73146;PMS7003;61345;48.922;2.244;2023-04-07T09:13:44;12.75;8.00;6.00
73146;PMS7003;61345;48.922;2.244;2023-04-07T09:16:09;7.50;6.25;5.00
73146;PMS7003;61345;48.922;2.244;2023-04-07T09:18:35;10.75;8.75;4.25
73146;PMS7003;61345;48.922;2.244;2023-04-07T09:21:01;12.67;7.33;4.33
73146;PMS7003;61345;48.922;2.244;2023-04-07T09:23:27;11.50;7.00;3.00
73146;PMS7003;61345;48.922;2.244;2023-04-07T09:25:56;12.00;9.25;5.50
73146;PMS7003;61345;48.922;2.244;2023-04-07T09:28:23;12.00;8.25;6.00
73146;PMS7003;61345;48.922;2.244;2023-04-07T09:30:52;14.00;8.00;6.00
73146;PMS7003;61345;48.922;2.244;2023-04-07T09:33:17;8.00;7.00;4.00
73146;PMS7003;61345;48.922;2.244;2023-04-07T09:35:50;7.50;6.50;2.75
73146;PMS7003;61345;48.922;2.244;2023-04-07T09:38:17;3.75;2.75;1.75
73146;PMS7003;61345;48.922;2.244;2023-04-07T09:40:42;9.00;8.00;6.00
73146;PMS7003;61345;48.922;2.244;2023-04-07T09:43:13;16.33;6.33;4.00
73146;PMS7003;61345;48.922;2.244;2023-04-07T09:45:38;9.75;6.50;4.25
73146;PMS7003;61345;48.922;2.244;2023-04-07T09:48:04;13.25;6.75;4.00
73146;PMS7003;61345;48.922;2.244;2023-04-07T09:50:31;4.50;3.00;2.00
73146;PMS7003;61345;48.922;2.244;2023-04-07T09:52:57;5.00;5.00;3.50
73146;PMS7003;61345;48.922;2.244;2023-04-07T09:55:23;8.00;7.00;6.00
73146;PMS7003;61345;48.922;2.244;2023-04-07T09:57:51;8.00;6.00;4.67
73146;PMS7003;61345;48.922;2.244;2023-04-07T10:00:17;7.50;4.00;3.00
73146;PMS7003;61345;48.922;2.244;2023-04-07T10:02:42;5.75;3.00;2.75
73146;PMS7003;61345;48.922;2.244;2023-04-07T10:05:08;3.00;3.00;2.00
73146;PMS7003;61345;48.922;2.244;2023-04-07T10:07:34;4.00;4.00;3.00
73146;PMS7003;61345;48.922;2.244;2023-04-07T10:09:59;6.00;3.00;3.00
73146;PMS7003;61345;48.922;2.244;2023-04-07T10:12:25;7.75;5.75;4.00
73146;PMS7003;61345;48.922;2.244;2023-04-07T10:14:51;5.25;5.25;4.00
73146;PMS7003;61345;48.922;2.244;2023-04-07T10:17:16;8.00;3.33;3.00
73146;PMS7003;61345;48.922;2.244;2023-04-07T10:19:43;7.75;5.00;3.00
73146;PMS7003;61345;48.922;2.244;2023-04-07T10:22:09;8.00;4.00;3.00
73146;PMS7003;61345;48.922;2.244;2023-04-07T10:27:06;8.00;3.00;2.75
73146;PMS7003;61345;48.922;2.244;2023-04-07T10:29:36;4.25;3.50;2.75
73146;PMS7003;61345;48.922;2.244;2023-04-07T10:32:04;1.25;1.25;1.00
73146;PMS7003;61345;48.922;2.244;2023-04-07T10:37:14;4.75;2.75;2.00
73146;PMS7003;61345;48.922;2.244;2023-04-07T10:39:41;4.00;3.50;3.00
73146;PMS7003;61345;48.922;2.244;2023-04-07T10:42:07;4.50;3.25;2.00
73146;PMS7003;61345;48.922;2.244;2023-04-07T10:44:52;3.00;1.75;1.00
73146;PMS7003;61345;48.922;2.244;2023-04-07T10:47:17;4.67;2.00;2.00
73146;PMS7003;61345;48.922;2.244;2023-04-07T10:50:13;1.75;1.75;1.00
73146;PMS7003;61345;48.922;2.244;2023-04-07T10:52:28;3.00;3.00;2.50
73146;PMS7003;61345;48.922;2.244;2023-04-07T10:57:37;3.75;3.75;3.00
73146;PMS7003;61345;48.922;2.244;2023-04-07T11:02:34;3.00;2.00;2.00
73146;PMS7003;61345;48.922;2.244;2023-04-07T11:04:59;3.00;2.00;2.00
73146;PMS7003;61345;48.922;2.244;2023-04-07T11:10:12;1.50;1.25;1.00
73146;PMS7003;61345;48.922;2.244;2023-04-07T11:12:39;2.00;1.00;1.00
73146;PMS7003;61345;48.922;2.244;2023-04-07T11:15:18;1.75;1.00;1.00
73146;PMS7003;61345;48.922;2.244;2023-04-07T11:17:43;2.00;1.00;1.00
73146;PMS7003;61345;48.922;2.244;2023-04-07T11:20:09;1.33;1.33;1.00
73146;PMS7003;61345;48.922;2.244;2023-04-07T11:22:34;2.25;1.50;1.00
73146;PMS7003;61345;48.922;2.244;2023-04-07T11:25:01;2.75;1.00;0.00
73146;PMS7003;61345;48.922;2.244;2023-04-07T11:27:26;6.00;3.75;3.00
73146;PMS7003;61345;48.922;2.244;2023-04-07T11:29:52;1.75;1.75;1.50
73146;PMS7003;61345;48.922;2.244;2023-04-07T11:32:21;4.00;2.00;2.00
73146;PMS7003;61345;48.922;2.244;2023-04-07T11:34:46;0.00;0.00;0.00
73146;PMS7003;61345;48.922;2.244;2023-04-07T11:37:18;1.00;1.00;1.00
73146;PMS7003;61345;48.922;2.244;2023-04-07T11:39:43;4.00;2.00;1.75
73146;PMS7003;61345;48.922;2.244;2023-04-07T11:42:12;1.00;1.00;1.00
73146;PMS7003;61345;48.922;2.244;2023-04-07T11:44:46;1.00;1.00;1.00
73146;PMS7003;61345;48.922;2.244;2023-04-07T11:47:11;0.00;0.00;0.00
73146;PMS7003;61345;48.922;2.244;2023-04-07T11:49:43;1.00;1.00;0.33
73146;PMS7003;61345;48.922;2.244;2023-04-07T11:52:08;2.00;1.00;1.00
73146;PMS7003;61345;48.922;2.244;2023-04-07T11:54:40;1.50;1.00;1.00
73146;PMS7003;61345;48.922;2.244;2023-04-07T11:57:06;1.00;1.00;1.00
73146;PMS7003;61345;48.922;2.244;2023-04-07T11:59:34;4.50;1.50;1.50
73146;PMS7003;61345;48.922;2.244;2023-04-07T12:01:59;3.00;2.00;2.00
73146;PMS7003;61345;48.922;2.244;2023-04-07T12:04:24;4.00;2.00;1.67
73146;PMS7003;61345;48.922;2.244;2023-04-07T12:06:50;1.00;1.00;1.00
73146;PMS7003;61345;48.922;2.244;2023-04-07T12:09:25;1.00;1.00;1.00
73146;PMS7003;61345;48.922;2.244;2023-04-07T12:11:51;1.75;0.25;0.00
73146;PMS7003;61345;48.922;2.244;2023-04-07T12:14:16;3.00;1.00;1.00
73146;PMS7003;61345;48.922;2.244;2023-04-07T12:16:42;3.67;1.00;1.00
73146;PMS7003;61345;48.922;2.244;2023-04-07T12:19:07;1.00;1.00;1.00
73146;PMS7003;61345;48.922;2.244;2023-04-07T12:21:32;1.00;0.75;0.75
73146;PMS7003;61345;48.922;2.244;2023-04-07T12:23:58;2.00;2.00;1.00
73146;PMS7003;61345;48.922;2.244;2023-04-07T12:26:23;2.00;1.00;1.00
73146;PMS7003;61345;48.922;2.244;2023-04-07T12:28:49;1.00;1.00;1.00
73146;PMS7003;61345;48.922;2.244;2023-04-07T12:31:14;1.67;1.00;1.00
73146;PMS7003;61345;48.922;2.244;2023-04-07T12:33:39;2.50;1.25;1.00
73146;PMS7003;61345;48.922;2.244;2023-04-07T12:36:05;2.00;2.00;1.00
73146;PMS7003;61345;48.922;2.244;2023-04-07T12:38:30;1.00;1.00;0.00
73146;PMS7003;61345;48.922;2.244;2023-04-07T12:40:56;1.33;1.00;1.00
73146;PMS7003;61345;48.922;2.244;2023-04-07T12:43:27;2.50;1.00;1.00
73146;PMS7003;61345;48.922;2.244;2023-04-07T12:45:52;0.00;0.00;0.00
73146;PMS7003;61345;48.922;2.244;2023-04-07T12:48:17;1.50;1.50;1.00
73146;PMS7003;61345;48.922;2.244;2023-04-07T12:50:43;1.00;1.00;1.00
73146;PMS7003;61345;48.922;2.244;2023-04-07T12:53:08;1.00;1.00;1.00
73146;PMS7003;61345;48.922;2.244;2023-04-07T12:55:33;1.00;1.00;1.00
73146;PMS7003;61345;48.922;2.244;2023-04-07T12:57:59;0.00;0.00;0.00
73146;PMS7003;61345;48.922;2.244;2023-04-07T13:00:25;0.75;0.00;0.00
73146;PMS7003;61345;48.922;2.244;2023-04-07T13:02:50;0.50;0.50;0.00
73146;PMS7003;61345;48.922;2.244;2023-04-07T13:05:15;1.33;1.00;0.33
73146;PMS7003;61345;48.922;2.244;2023-04-07T13:07:40;1.50;1.00;0.75
73146;PMS7003;61345;48.922;2.244;2023-04-07T13:10:06;2.33;0.67;0.67
73146;PMS7003;61345;48.922;2.244;2023-04-07T13:12:32;0.75;0.75;0.75
73146;PMS7003;61345;48.922;2.244;2023-04-07T13:14:57;5.33;1.33;1.00
73146;PMS7003;61345;48.922;2.244;2023-04-07T13:17:22;2.00;0.33;0.33
73146;PMS7003;61345;48.922;2.244;2023-04-07T13:19:47;2.33;1.00;1.00
73146;PMS7003;61345;48.922;2.244;2023-04-07T13:22:13;2.75;1.00;1.00
73146;PMS7003;61345;48.922;2.244;2023-04-07T13:24:38;1.67;1.00;1.00
73146;PMS7003;61345;48.922;2.244;2023-04-07T13:27:03;0.75;0.75;0.50
73146;PMS7003;61345;48.922;2.244;2023-04-07T13:29:28;1.00;1.00;1.00
73146;PMS7003;61345;48.922;2.244;2023-04-07T13:32:03;2.75;1.00;1.00
73146;PMS7003;61345;48.922;2.244;2023-04-07T13:34:28;0.25;0.25;0.25
73146;PMS7003;61345;48.922;2.244;2023-04-07T13:36:53;0.00;0.00;0.00
73146;PMS7003;61345;48.922;2.244;2023-04-07T13:39:18;4.00;1.00;1.00
73146;PMS7003;61345;48.922;2.244;2023-04-07T13:41:43;0.00;0.00;0.00
73146;PMS7003;61345;48.922;2.244;2023-04-07T13:44:09;0.33;0.33;0.33
73146;PMS7003;61345;48.922;2.244;2023-04-07T13:46:34;0.50;0.50;0.00
73146;PMS7003;61345;48.922;2.244;2023-04-07T13:48:59;0.00;0.00;0.00
73146;PMS7003;61345;48.922;2.244;2023-04-07T13:51:24;0.00;0.00;0.00
73146;PMS7003;61345;48.922;2.244;2023-04-07T13:53:49;0.00;0.00;0.00
73146;PMS7003;61345;48.922;2.244;2023-04-07T13:56:15;0.00;0.00;0.00
73146;PMS7003;61345;48.922;2.244;2023-04-07T13:58:40;1.00;0.00;0.00
73146;PMS7003;61345;48.922;2.244;2023-04-07T14:01:05;2.00;0.00;0.00
73146;PMS7003;61345;48.922;2.244;2023-04-07T14:03:31;0.75;0.75;0.00
73146;PMS7003;61345;48.922;2.244;2023-04-07T14:05:56;0.00;0.00;0.00
73146;PMS7003;61345;48.922;2.244;2023-04-07T14:08:25;0.25;0.25;0.25
73146;PMS7003;61345;48.922;2.244;2023-04-07T14:10:50;0.00;0.00;0.00
73146;PMS7003;61345;48.922;2.244;2023-04-07T14:13:15;0.00;0.00;0.00
73146;PMS7003;61345;48.922;2.244;2023-04-07T14:15:41;0.67;0.67;0.67
73146;PMS7003;61345;48.922;2.244;2023-04-07T14:18:06;0.33;0.33;0.33
73146;PMS7003;61345;48.922;2.244;2023-04-07T14:20:31;2.00;1.00;1.00
73146;PMS7003;61345;48.922;2.244;2023-04-07T14:22:57;0.00;0.00;0.00
73146;PMS7003;61345;48.922;2.244;2023-04-07T14:25:22;0.00;0.00;0.00
73146;PMS7003;61345;48.922;2.244;2023-04-07T14:27:47;0.67;0.67;0.00
73146;PMS7003;61345;48.922;2.244;2023-04-07T14:30:12;1.00;0.00;0.00